createdAt,value
2019-02-15T00:00:15.901Z,0
2019-02-15T00:01:15.903Z,0
2019-02-15T00:02:15.848Z,0
2019-02-15T00:03:15.834Z,0
2019-02-15T00:04:15.817Z,0
2019-02-15T00:05:15.564Z,0
2019-02-15T00:06:15.786Z,0
2019-02-15T00:07:15.770Z,0
2019-02-15T00:08:15.751Z,0
2019-02-15T00:09:15.734Z,0
2019-02-15T00:10:15.723Z,0
2019-02-15T00:11:15.706Z,0
2019-02-15T00:12:15.687Z,0
2019-02-15T00:13:20.883Z,0
2019-02-15T00:14:15.658Z,0
2019-02-15T00:15:15.635Z,0
2019-02-15T00:16:15.628Z,0
2019-02-15T00:17:15.603Z,0
2019-02-15T00:18:15.583Z,0
2019-02-15T00:19:15.571Z,0
2019-02-15T00:20:15.555Z,0
2019-02-15T00:21:15.536Z,0
2019-02-15T00:22:15.524Z,0
2019-02-15T00:23:15.498Z,0
2019-02-15T00:24:15.484Z,0
2019-02-15T00:25:15.513Z,0
2019-02-15T00:26:16.616Z,0
2019-02-15T00:27:15.450Z,0
2019-02-15T00:28:15.433Z,0
2019-02-15T00:29:15.400Z,0
2019-02-15T00:30:15.384Z,0
2019-02-15T00:31:15.368Z,0
2019-02-15T00:32:15.351Z,0
2019-02-15T00:33:15.334Z,0
2019-02-15T00:34:15.315Z,0
2019-02-15T00:35:15.303Z,0
2019-02-15T00:36:15.280Z,0
2019-02-15T00:37:15.285Z,0
2019-02-15T00:38:15.250Z,0
2019-02-15T00:39:15.231Z,0
2019-02-15T00:40:15.216Z,0
2019-02-15T00:41:15.203Z,0
2019-02-15T00:42:15.179Z,0
2019-02-15T00:43:22.042Z,0
2019-02-15T00:44:15.149Z,0
2019-02-15T00:45:15.134Z,0
2019-02-15T00:46:15.111Z,0
2019-02-15T00:47:15.096Z,0
2019-02-15T00:48:15.085Z,0
2019-02-15T00:49:15.066Z,0
2019-02-15T00:50:15.074Z,0
2019-02-15T00:51:15.030Z,0
2019-02-15T00:52:15.016Z,0
2019-02-15T00:53:14.996Z,0
2019-02-15T00:54:14.988Z,0
2019-02-15T00:55:14.975Z,0
2019-02-15T00:56:15.008Z,0
2019-02-15T00:57:14.932Z,0
2019-02-15T00:58:14.911Z,0
2019-02-15T00:59:14.897Z,0
2019-02-15T01:00:14.946Z,0
2019-02-15T01:01:14.875Z,0
2019-02-15T01:02:14.846Z,0
2019-02-15T01:03:14.832Z,0
2019-02-15T01:04:14.810Z,0
2019-02-15T01:05:14.795Z,0
2019-02-15T01:06:14.776Z,0
2019-02-15T01:07:29.434Z,0
2019-02-15T01:08:14.743Z,0
2019-02-15T01:09:14.727Z,0
2019-02-15T01:10:14.715Z,0
2019-02-15T01:11:14.700Z,0
2019-02-15T01:12:14.685Z,0
2019-02-15T01:13:14.662Z,0
2019-02-15T01:14:14.643Z,0
2019-02-15T01:15:14.624Z,0
2019-02-15T01:16:14.619Z,0
2019-02-15T01:17:14.593Z,0
2019-02-15T01:18:14.616Z,0
2019-02-15T01:19:14.563Z,0
2019-02-15T01:20:14.542Z,0
2019-02-15T01:21:14.583Z,0
2019-02-15T01:22:14.515Z,0
2019-02-15T01:23:14.500Z,0
2019-02-15T01:24:14.479Z,0
2019-02-15T01:25:14.462Z,0
2019-02-15T01:26:14.439Z,0
2019-02-15T01:27:14.420Z,0
2019-02-15T01:28:14.419Z,0
2019-02-15T01:29:14.396Z,0
2019-02-15T01:30:14.384Z,0
2019-02-15T01:31:14.357Z,0
2019-02-15T01:32:14.339Z,0
2019-02-15T01:33:14.324Z,0
2019-02-15T01:34:14.307Z,0
2019-02-15T01:35:14.291Z,0
2019-02-15T01:36:14.273Z,0
2019-02-15T01:37:14.253Z,0
2019-02-15T01:38:14.240Z,0
2019-02-15T01:39:14.228Z,0
2019-02-15T01:40:14.222Z,0
2019-02-15T01:41:14.219Z,0
2019-02-15T01:42:14.177Z,0
2019-02-15T01:43:14.155Z,0
2019-02-15T01:44:14.138Z,0
2019-02-15T01:45:13.888Z,0
2019-02-15T01:46:14.137Z,0
2019-02-15T01:47:14.115Z,0
2019-02-15T01:48:13.835Z,0
2019-02-15T01:49:14.071Z,0
2019-02-15T01:50:14.037Z,0
2019-02-15T01:51:14.095Z,0
2019-02-15T01:52:14.016Z,0
2019-02-15T01:53:14.042Z,0
2019-02-15T01:54:13.971Z,0
2019-02-15T01:55:13.962Z,0
2019-02-15T01:56:13.942Z,0
2019-02-15T01:57:13.928Z,0
2019-02-15T01:58:13.900Z,0
2019-02-15T01:59:13.887Z,0
2019-02-15T02:00:13.872Z,0
2019-02-15T02:01:13.859Z,0
2019-02-15T02:02:13.847Z,0
2019-02-15T02:03:13.823Z,0
2019-02-15T02:04:13.801Z,0
2019-02-15T02:05:13.806Z,0
2019-02-15T02:06:13.777Z,0
2019-02-15T02:07:13.751Z,0
2019-02-15T02:08:13.744Z,0
2019-02-15T02:09:13.480Z,0
2019-02-15T02:10:13.718Z,0
2019-02-15T02:11:13.691Z,0
2019-02-15T02:12:13.668Z,0
2019-02-15T02:13:13.647Z,0
2019-02-15T02:14:13.643Z,0
2019-02-15T02:15:13.627Z,0
2019-02-15T02:16:13.601Z,0
2019-02-15T02:17:13.580Z,0
2019-02-15T02:18:13.562Z,0
2019-02-15T02:19:13.548Z,0
2019-02-15T02:20:13.559Z,0
2019-02-15T02:21:13.522Z,0
2019-02-15T02:22:13.651Z,0
2019-02-15T02:23:13.489Z,0
2019-02-15T02:24:13.473Z,0
2019-02-15T02:25:13.453Z,0
2019-02-15T02:26:13.433Z,0
2019-02-15T02:27:13.439Z,0
2019-02-15T02:28:13.445Z,0
2019-02-15T02:29:13.378Z,0
2019-02-15T02:30:13.406Z,0
2019-02-15T02:31:13.347Z,0
2019-02-15T02:32:13.335Z,0
2019-02-15T02:33:13.321Z,0
2019-02-15T02:34:13.301Z,0
2019-02-15T02:35:13.292Z,0
2019-02-15T02:36:13.286Z,0
2019-02-15T02:37:13.265Z,0
2019-02-15T02:38:13.235Z,0
2019-02-15T02:39:13.223Z,0
2019-02-15T02:40:13.222Z,0
2019-02-15T02:41:12.949Z,0
2019-02-15T02:42:13.164Z,0
2019-02-15T02:43:13.140Z,0
2019-02-15T02:44:13.145Z,0
2019-02-15T02:45:13.141Z,0
2019-02-15T02:46:13.092Z,0
2019-02-15T02:47:13.087Z,0
2019-02-15T02:48:13.094Z,0
2019-02-15T02:49:13.068Z,0
2019-02-15T02:50:13.035Z,0
2019-02-15T02:51:13.069Z,0
2019-02-15T02:52:12.991Z,0
2019-02-15T02:53:12.977Z,0
2019-02-15T02:54:13.017Z,0
2019-02-15T02:55:12.947Z,0
2019-02-15T02:56:12.689Z,0
2019-02-15T02:57:12.908Z,0
2019-02-15T02:58:12.894Z,0
2019-02-15T02:59:12.888Z,0
2019-02-15T03:00:12.865Z,0
2019-02-15T03:01:12.834Z,0
2019-02-15T03:02:12.938Z,0
2019-02-15T03:03:12.834Z,0
2019-02-15T03:04:12.832Z,0
2019-02-15T03:05:12.799Z,0
2019-02-15T03:06:12.751Z,0
2019-02-15T03:07:12.834Z,0
2019-02-15T03:08:12.724Z,0
2019-02-15T03:09:12.709Z,0
2019-02-15T03:10:12.688Z,0
2019-02-15T03:11:12.682Z,0
2019-02-15T03:12:12.650Z,0
2019-02-15T03:13:12.634Z,0
2019-02-15T03:14:18.640Z,0
2019-02-15T03:15:12.616Z,0
2019-02-15T03:16:12.601Z,0
2019-02-15T03:17:12.565Z,0
2019-02-15T03:18:12.549Z,0
2019-02-15T03:19:12.532Z,0
2019-02-15T03:20:12.543Z,0
2019-02-15T03:21:12.522Z,0
2019-02-15T03:22:12.498Z,0
2019-02-15T03:23:12.489Z,0
2019-02-15T03:24:12.448Z,0
2019-02-15T03:25:12.450Z,0
2019-02-15T03:26:12.417Z,0
2019-02-15T03:27:12.176Z,0
2019-02-15T03:28:12.383Z,0
2019-02-15T03:29:12.363Z,0
2019-02-15T03:30:12.389Z,0
2019-02-15T03:31:12.358Z,0
2019-02-15T03:32:12.413Z,0
2019-02-15T03:33:12.360Z,0
2019-02-15T03:34:12.334Z,0
2019-02-15T03:35:12.292Z,0
2019-02-15T03:36:12.252Z,0
2019-02-15T03:37:12.282Z,0
2019-02-15T03:38:12.213Z,0
2019-02-15T03:39:12.185Z,0
2019-02-15T03:40:12.184Z,0
2019-02-15T03:41:12.169Z,0
2019-02-15T03:42:12.149Z,0
2019-02-15T03:43:12.138Z,0
2019-02-15T03:44:21.273Z,0
2019-02-15T03:45:12.084Z,0
2019-02-15T03:46:12.092Z,0
2019-02-15T03:47:12.087Z,0
2019-02-15T03:48:12.050Z,0
2019-02-15T03:49:12.097Z,0
2019-02-15T03:50:12.025Z,0
2019-02-15T03:51:11.992Z,0
2019-02-15T03:52:11.981Z,0
2019-02-15T03:53:11.986Z,0
2019-02-15T03:54:11.929Z,0
2019-02-15T03:55:11.913Z,0
2019-02-15T03:56:11.922Z,0
2019-02-15T03:57:11.890Z,0
2019-02-15T03:58:11.863Z,0
2019-02-15T03:59:11.849Z,0
2019-02-15T04:00:11.610Z,0
2019-02-15T04:01:11.824Z,0
2019-02-15T04:02:11.556Z,0
2019-02-15T04:03:11.782Z,0
2019-02-15T04:04:11.758Z,0
2019-02-15T04:05:11.752Z,0
2019-02-15T04:06:11.734Z,0
2019-02-15T04:07:11.746Z,0
2019-02-15T04:08:11.720Z,0
2019-02-15T04:09:11.673Z,0
2019-02-15T04:10:11.647Z,0
2019-02-15T04:11:11.638Z,0
2019-02-15T04:12:11.620Z,0
2019-02-15T04:13:11.625Z,0
2019-02-15T04:14:11.588Z,0
2019-02-15T04:15:11.578Z,0
2019-02-15T04:16:11.608Z,0
2019-02-15T04:17:11.543Z,0
2019-02-15T04:18:26.188Z,0
2019-02-15T04:19:11.494Z,0
2019-02-15T04:20:11.482Z,0
2019-02-15T04:21:11.505Z,0
2019-02-15T04:22:11.445Z,0
2019-02-15T04:23:11.463Z,0
2019-02-15T04:24:13.435Z,0
2019-02-15T04:25:11.399Z,0
2019-02-15T04:26:11.382Z,0
2019-02-15T04:27:11.368Z,0
2019-02-15T04:28:11.359Z,0
2019-02-15T04:29:11.339Z,0
2019-02-15T04:30:11.317Z,0
2019-02-15T04:31:11.292Z,0
2019-02-15T04:32:11.301Z,0
2019-02-15T04:33:11.293Z,0
2019-02-15T04:34:11.245Z,0
2019-02-15T04:35:11.227Z,0
2019-02-15T04:36:11.236Z,0
2019-02-15T04:37:11.215Z,0
2019-02-15T04:38:11.198Z,0
2019-02-15T04:39:11.167Z,0
2019-02-15T04:40:11.155Z,0
2019-02-15T04:41:11.132Z,0
2019-02-15T04:42:11.108Z,0
2019-02-15T04:43:11.106Z,0
2019-02-15T04:44:11.073Z,0
2019-02-15T04:45:11.066Z,0
2019-02-15T04:46:11.108Z,0
2019-02-15T04:47:11.020Z,0
2019-02-15T04:48:11.008Z,0
2019-02-15T04:49:10.994Z,0
2019-02-15T04:50:10.974Z,0
2019-02-15T04:51:10.988Z,0
2019-02-15T04:52:10.947Z,0
2019-02-15T04:53:10.953Z,0
2019-02-15T04:54:10.902Z,0
2019-02-15T04:55:10.944Z,0
2019-02-15T04:56:10.869Z,0
2019-02-15T04:57:10.612Z,0
2019-02-15T04:58:10.851Z,0
2019-02-15T04:59:10.819Z,0
2019-02-15T05:00:10.810Z,0
2019-02-15T05:01:10.846Z,0
2019-02-15T05:02:10.763Z,0
2019-02-15T05:03:10.749Z,0
2019-02-15T05:04:10.753Z,0
2019-02-15T05:05:10.717Z,0
2019-02-15T05:06:10.698Z,0
2019-02-15T05:07:10.679Z,0
2019-02-15T05:08:10.663Z,0
2019-02-15T05:09:10.672Z,0
2019-02-15T05:10:10.488Z,0
2019-02-15T05:11:10.642Z,0
2019-02-15T05:12:10.606Z,0
2019-02-15T05:13:10.601Z,0
2019-02-15T05:14:10.579Z,0
2019-02-15T05:15:10.602Z,0
2019-02-15T05:16:10.522Z,0
2019-02-15T05:17:10.511Z,0
2019-02-15T05:18:10.488Z,0
2019-02-15T05:19:10.471Z,0
2019-02-15T05:20:10.465Z,0
2019-02-15T05:21:10.439Z,0
2019-02-15T05:22:10.424Z,0
2019-02-15T05:23:10.402Z,0
2019-02-15T05:24:10.411Z,0
2019-02-15T05:25:10.390Z,0
2019-02-15T05:26:10.385Z,0
2019-02-15T05:27:10.348Z,0
2019-02-15T05:28:11.386Z,0
2019-02-15T05:29:10.071Z,0
2019-02-15T05:30:10.379Z,0
2019-02-15T05:31:10.266Z,0
2019-02-15T05:32:10.254Z,0
2019-02-15T05:33:10.272Z,0
2019-02-15T05:34:10.234Z,0
2019-02-15T05:35:10.201Z,0
2019-02-15T05:36:10.175Z,0
2019-02-15T05:37:10.158Z,0
2019-02-15T05:38:10.146Z,0
2019-02-15T05:39:10.130Z,0
2019-02-15T05:40:10.117Z,0
2019-02-15T05:41:10.095Z,0
2019-02-15T05:42:10.071Z,0
2019-02-15T05:43:10.054Z,0
2019-02-15T05:44:10.082Z,0
2019-02-15T05:45:11.595Z,0
2019-02-15T05:46:10.004Z,0
2019-02-15T05:47:10.006Z,4
2019-02-15T05:48:09.969Z,4
2019-02-15T05:49:09.711Z,0
2019-02-15T05:50:09.947Z,4
2019-02-15T05:51:09.918Z,4
2019-02-15T05:52:09.921Z,4
2019-02-15T05:53:09.882Z,4
2019-02-15T05:54:09.881Z,4
2019-02-15T05:55:09.856Z,8
2019-02-15T05:56:09.835Z,8
2019-02-15T05:57:12.021Z,8
2019-02-15T05:58:09.798Z,8
2019-02-15T05:59:09.772Z,12
2019-02-15T06:00:09.558Z,16
2019-02-15T06:01:09.739Z,20
2019-02-15T06:02:09.723Z,24
2019-02-15T06:03:09.720Z,56
2019-02-15T06:04:09.689Z,32
2019-02-15T06:05:09.696Z,36
2019-02-15T06:06:09.678Z,44
2019-02-15T06:07:09.642Z,48
2019-02-15T06:08:09.618Z,56
2019-02-15T06:09:09.359Z,68
2019-02-15T06:10:09.589Z,76
2019-02-15T06:11:14.902Z,92
2019-02-15T06:12:09.565Z,108
2019-02-15T06:13:09.605Z,124
2019-02-15T06:14:09.526Z,140
2019-02-15T06:15:19.773Z,160
2019-02-15T06:16:09.238Z,176
2019-02-15T06:17:09.267Z,200
2019-02-15T06:18:09.441Z,224
2019-02-15T06:19:09.470Z,252
2019-02-15T06:20:09.411Z,280
2019-02-15T06:21:09.432Z,308
2019-02-15T06:22:10.606Z,336
2019-02-15T06:23:09.364Z,368
2019-02-15T06:24:09.339Z,404
2019-02-15T06:25:09.342Z,436
2019-02-15T06:26:09.457Z,480
2019-02-15T06:27:09.313Z,520
2019-02-15T06:28:10.483Z,564
2019-02-15T06:29:09.257Z,608
2019-02-15T06:30:09.249Z,656
2019-02-15T06:31:09.218Z,704
2019-02-15T06:32:09.209Z,752
2019-02-15T06:33:09.190Z,804
2019-02-15T06:34:09.171Z,852
2019-02-15T06:35:09.150Z,908
2019-02-15T06:36:09.132Z,960
2019-02-15T06:37:09.128Z,1012
2019-02-15T06:38:09.108Z,1068
2019-02-15T06:39:09.085Z,1124
2019-02-15T06:40:09.093Z,1180
2019-02-15T06:41:09.071Z,1228
2019-02-15T06:42:09.040Z,1284
2019-02-15T06:43:09.006Z,1340
2019-02-15T06:44:08.996Z,1392
2019-02-15T06:45:08.979Z,1448
2019-02-15T06:46:08.957Z,1496
2019-02-15T06:47:08.954Z,1552
2019-02-15T06:48:08.928Z,1596
2019-02-15T06:49:08.918Z,1656
2019-02-15T06:50:08.918Z,1712
2019-02-15T06:51:08.892Z,1760
2019-02-15T06:52:08.859Z,1836
2019-02-15T06:53:10.001Z,1996
2019-02-15T06:54:08.817Z,2244
2019-02-15T06:55:08.801Z,2440
2019-02-15T06:56:08.791Z,2612
2019-02-15T06:57:08.765Z,2424
2019-02-15T06:58:08.754Z,2768
2019-02-15T06:59:08.734Z,2924
2019-02-15T07:00:08.731Z,2984
2019-02-15T07:01:08.696Z,2864
2019-02-15T07:02:08.687Z,2976
2019-02-15T07:03:08.675Z,3132
2019-02-15T07:04:08.665Z,2912
2019-02-15T07:05:08.633Z,3624
2019-02-15T07:06:08.620Z,3772
2019-02-15T07:07:08.613Z,3824
2019-02-15T07:08:08.583Z,3952
2019-02-15T07:09:08.572Z,4076
2019-02-15T07:10:08.562Z,3944
2019-02-15T07:11:08.558Z,2996
2019-02-15T07:12:08.591Z,4296
2019-02-15T07:13:08.506Z,3324
2019-02-15T07:14:08.500Z,4224
2019-02-15T07:15:08.554Z,4212
2019-02-15T07:16:08.462Z,3376
2019-02-15T07:17:08.450Z,4380
2019-02-15T07:18:08.435Z,3720
2019-02-15T07:19:08.427Z,4632
2019-02-15T07:20:08.409Z,4844
2019-02-15T07:21:08.395Z,4832
2019-02-15T07:22:08.378Z,4920
2019-02-15T07:23:08.372Z,5040
2019-02-15T07:24:08.361Z,5016
2019-02-15T07:25:08.398Z,4408
2019-02-15T07:26:08.317Z,5320
2019-02-15T07:27:08.302Z,5560
2019-02-15T07:28:08.051Z,5564
2019-02-15T07:29:08.045Z,5696
2019-02-15T07:30:08.266Z,5800
2019-02-15T07:31:08.279Z,6068
2019-02-15T07:32:08.243Z,6228
2019-02-15T07:33:08.225Z,6292
2019-02-15T07:34:08.216Z,5928
2019-02-15T07:35:08.198Z,6224
2019-02-15T07:36:08.234Z,6456
2019-02-15T07:37:08.184Z,4152
2019-02-15T07:38:08.168Z,6752
2019-02-15T07:39:08.154Z,6900
2019-02-15T07:40:08.169Z,7052
2019-02-15T07:41:08.141Z,7204
2019-02-15T07:42:08.121Z,7348
2019-02-15T07:43:08.103Z,7476
2019-02-15T07:44:08.089Z,6812
2019-02-15T07:45:08.071Z,7440
2019-02-15T07:46:08.056Z,7100
2019-02-15T07:47:08.052Z,7836
2019-02-15T07:48:08.053Z,8080
2019-02-15T07:49:08.112Z,7956
2019-02-15T07:50:08.032Z,6256
2019-02-15T07:51:16.770Z,3876
2019-02-15T07:52:07.995Z,3616
2019-02-15T07:53:09.106Z,3592
2019-02-15T07:54:08.004Z,3596
2019-02-15T07:55:07.954Z,3608
2019-02-15T07:56:07.945Z,3616
2019-02-15T07:57:07.960Z,3812
2019-02-15T07:58:07.919Z,3828
2019-02-15T07:59:07.907Z,3840
2019-02-15T08:00:08.123Z,3848
2019-02-15T08:01:07.890Z,3852
2019-02-15T08:02:09.289Z,3872
2019-02-15T08:03:07.872Z,3880
2019-02-15T08:04:09.290Z,3892
2019-02-15T08:05:07.837Z,3900
2019-02-15T08:06:07.817Z,3928
2019-02-15T08:07:07.813Z,3916
2019-02-15T08:08:07.792Z,3932
2019-02-15T08:09:07.786Z,3936
2019-02-15T08:10:07.770Z,3944
2019-02-15T08:11:07.756Z,3960
2019-02-15T08:12:07.773Z,3956
2019-02-15T08:13:07.732Z,3944
2019-02-15T08:14:17.619Z,3952
2019-02-15T08:15:07.707Z,3956
2019-02-15T08:16:09.849Z,3952
2019-02-15T08:17:07.711Z,3940
2019-02-15T08:18:07.666Z,3948
2019-02-15T08:19:07.645Z,3932
2019-02-15T08:20:07.649Z,3932
2019-02-15T08:21:07.640Z,3944
2019-02-15T08:22:07.135Z,3952
2019-02-15T08:23:07.596Z,3980
2019-02-15T08:24:07.582Z,3984
2019-02-15T08:25:09.967Z,4000
2019-02-15T08:26:07.597Z,4004
2019-02-15T08:27:07.537Z,4020
2019-02-15T08:28:07.302Z,4024
2019-02-15T08:29:07.523Z,4032
2019-02-15T08:30:07.504Z,4048
2019-02-15T08:31:07.488Z,4060
2019-02-15T08:32:07.477Z,4076
2019-02-15T08:33:07.466Z,4088
2019-02-15T08:34:07.447Z,4092
2019-02-15T08:35:07.429Z,4096
2019-02-15T08:36:07.178Z,4096
2019-02-15T08:37:07.167Z,4104
2019-02-15T08:38:07.420Z,4116
2019-02-15T08:39:07.377Z,4112
2019-02-15T08:40:07.419Z,4124
2019-02-15T08:41:07.357Z,4132
2019-02-15T08:42:11.373Z,4144
2019-02-15T08:43:07.322Z,4148
2019-02-15T08:44:07.319Z,4148
2019-02-15T08:45:07.320Z,4156
2019-02-15T08:46:10.210Z,4156
2019-02-15T08:47:07.266Z,4152
2019-02-15T08:48:07.269Z,4152
2019-02-15T08:49:07.241Z,4164
2019-02-15T08:50:07.314Z,4156
2019-02-15T08:51:07.246Z,4156
2019-02-15T08:52:07.216Z,4168
2019-02-15T08:53:06.952Z,4168
2019-02-15T08:54:07.178Z,4176
2019-02-15T08:55:07.384Z,4184
2019-02-15T08:56:07.167Z,4180
2019-02-15T08:57:07.155Z,4180
2019-02-15T08:58:07.126Z,4188
2019-02-15T08:59:09.100Z,4196
2019-02-15T09:00:07.091Z,4192
2019-02-15T09:01:07.077Z,4196
2019-02-15T09:02:07.070Z,4204
2019-02-15T09:03:07.051Z,4212
2019-02-15T09:04:07.040Z,4228
2019-02-15T09:05:09.081Z,4240
2019-02-15T09:06:07.009Z,4248
2019-02-15T09:07:07.001Z,4248
2019-02-15T09:08:06.985Z,4256
2019-02-15T09:09:06.978Z,4268
2019-02-15T09:10:06.973Z,4276
2019-02-15T09:11:07.265Z,4284
2019-02-15T09:12:06.932Z,4284
2019-02-15T09:13:06.927Z,4288
2019-02-15T09:14:06.908Z,4292
2019-02-15T09:15:06.973Z,4296
2019-02-15T09:16:15.182Z,4304
2019-02-15T09:17:06.866Z,4312
2019-02-15T09:18:06.862Z,4316
2019-02-15T09:19:06.844Z,4320
2019-02-15T09:20:06.590Z,4328
2019-02-15T09:21:06.823Z,4324
2019-02-15T09:22:06.803Z,4328
2019-02-15T09:23:06.785Z,4336
2019-02-15T09:24:06.787Z,4336
2019-02-15T09:25:07.065Z,4340
2019-02-15T09:26:06.508Z,4340
2019-02-15T09:27:06.756Z,4340
2019-02-15T09:28:06.723Z,4344
2019-02-15T09:29:06.716Z,4344
2019-02-15T09:30:06.753Z,4344
2019-02-15T09:31:06.706Z,4340
2019-02-15T09:32:06.689Z,4328
2019-02-15T09:33:06.666Z,4316
2019-02-15T09:34:06.653Z,4308
2019-02-15T09:35:06.953Z,4300
2019-02-15T09:36:06.663Z,4284
2019-02-15T09:37:06.618Z,4284
2019-02-15T09:38:06.616Z,4268
2019-02-15T09:39:06.594Z,4260
2019-02-15T09:40:06.579Z,4264
2019-02-15T09:41:06.572Z,4260
2019-02-15T09:42:06.563Z,4264
2019-02-15T09:43:06.572Z,4260
2019-02-15T09:44:06.535Z,4260
2019-02-15T09:45:06.519Z,4252
2019-02-15T09:46:06.503Z,4256
2019-02-15T09:47:06.497Z,4256
2019-02-15T09:48:06.482Z,4252
2019-02-15T09:49:06.478Z,4252
2019-02-15T09:50:07.524Z,4244
2019-02-15T09:51:06.449Z,4236
2019-02-15T09:52:06.436Z,4236
2019-02-15T09:53:06.427Z,4232
2019-02-15T09:54:06.414Z,4228
2019-02-15T09:55:06.427Z,4224
2019-02-15T09:56:06.391Z,4224
2019-02-15T09:57:06.380Z,4228
2019-02-15T09:58:06.368Z,4236
2019-02-15T09:59:06.365Z,4228
2019-02-15T10:00:06.350Z,4228
2019-02-15T10:01:06.590Z,4220
2019-02-15T10:02:06.322Z,4212
2019-02-15T10:03:06.307Z,4200
2019-02-15T10:04:06.294Z,4192
2019-02-15T10:05:06.290Z,4180
2019-02-15T10:06:06.277Z,4176
2019-02-15T10:07:06.261Z,4164
2019-02-15T10:08:06.255Z,4152
2019-02-15T10:09:06.245Z,4144
2019-02-15T10:10:06.251Z,4140
2019-02-15T10:11:06.218Z,4140
2019-02-15T10:12:06.207Z,4136
2019-02-15T10:13:05.956Z,4136
2019-02-15T10:14:06.184Z,4136
2019-02-15T10:15:06.172Z,4132
2019-02-15T10:16:06.167Z,4128
2019-02-15T10:17:06.161Z,4132
2019-02-15T10:18:06.141Z,4132
2019-02-15T10:19:06.136Z,4124
2019-02-15T10:20:06.129Z,4116
2019-02-15T10:21:06.117Z,4104
2019-02-15T10:22:06.107Z,4096
2019-02-15T10:23:06.090Z,4076
2019-02-15T10:24:06.073Z,4068
2019-02-15T10:25:06.102Z,4064
2019-02-15T10:26:06.057Z,4064
2019-02-15T10:27:06.048Z,4060
2019-02-15T10:28:06.073Z,4052
2019-02-15T10:29:06.019Z,4048
2019-02-15T10:30:07.447Z,4044
2019-02-15T10:31:06.003Z,4044
2019-02-15T10:32:06.007Z,4052
2019-02-15T10:33:05.987Z,4048
2019-02-15T10:34:05.968Z,4044
2019-02-15T10:35:05.960Z,4032
2019-02-15T10:36:05.949Z,4024
2019-02-15T10:37:05.946Z,4020
2019-02-15T10:38:05.931Z,4012
2019-02-15T10:39:05.917Z,4000
2019-02-15T10:40:05.915Z,3996
2019-02-15T10:41:05.894Z,3988
2019-02-15T10:42:05.887Z,3980
2019-02-15T10:43:05.878Z,3972
2019-02-15T10:44:05.864Z,3968
2019-02-15T10:45:05.853Z,3972
2019-02-15T10:46:05.856Z,3960
2019-02-15T10:47:13.773Z,3952
2019-02-15T10:48:06.130Z,3948
2019-02-15T10:49:05.817Z,3944
2019-02-15T10:50:07.588Z,3936
2019-02-15T10:51:05.791Z,3928
2019-02-15T10:52:05.781Z,3928
2019-02-15T10:53:05.776Z,3932
2019-02-15T10:54:07.234Z,3940
2019-02-15T10:55:05.756Z,3936
2019-02-15T10:56:05.754Z,3936
2019-02-15T10:57:05.731Z,3932
2019-02-15T10:58:05.721Z,3932
2019-02-15T10:59:05.712Z,3932
2019-02-15T11:00:05.728Z,3932
2019-02-15T11:01:05.696Z,3932
2019-02-15T11:02:05.678Z,3924
2019-02-15T11:03:05.685Z,3924
2019-02-15T11:04:05.669Z,3924
2019-02-15T11:05:05.658Z,3924
2019-02-15T11:06:05.644Z,3932
2019-02-15T11:07:05.656Z,3928
2019-02-15T11:08:05.637Z,3936
2019-02-15T11:09:05.612Z,3936
2019-02-15T11:10:05.621Z,3924
2019-02-15T11:11:05.621Z,3916
2019-02-15T11:12:05.589Z,3912
2019-02-15T11:13:05.595Z,3912
2019-02-15T11:14:05.560Z,3912
2019-02-15T11:15:05.550Z,3908
2019-02-15T11:16:05.542Z,3912
2019-02-15T11:17:05.698Z,3908
2019-02-15T11:18:05.537Z,3908
2019-02-15T11:19:05.534Z,3904
2019-02-15T11:20:05.520Z,3900
2019-02-15T11:21:05.503Z,3908
2019-02-15T11:22:05.490Z,3904
2019-02-15T11:23:05.491Z,3908
2019-02-15T11:24:05.473Z,3904
2019-02-15T11:25:05.463Z,3900
2019-02-15T11:26:06.767Z,3900
2019-02-15T11:27:05.449Z,3904
2019-02-15T11:28:05.426Z,3904
2019-02-15T11:29:05.187Z,3896
2019-02-15T11:30:05.411Z,3900
2019-02-15T11:31:05.399Z,3896
2019-02-15T11:32:05.396Z,3892
2019-02-15T11:33:05.414Z,3888
2019-02-15T11:34:05.389Z,3888
2019-02-15T11:35:05.375Z,3884
2019-02-15T11:36:05.358Z,3888
2019-02-15T11:37:05.354Z,3888
2019-02-15T11:38:05.116Z,3884
2019-02-15T11:39:05.330Z,3892
2019-02-15T11:40:05.321Z,3888
2019-02-15T11:41:13.570Z,3884
2019-02-15T11:42:05.298Z,3884
2019-02-15T11:43:05.338Z,3884
2019-02-15T11:44:05.290Z,3884
2019-02-15T11:45:05.285Z,3884
2019-02-15T11:46:05.262Z,3888
2019-02-15T11:47:05.013Z,3888
2019-02-15T11:48:05.245Z,3884
2019-02-15T11:49:05.235Z,3884
2019-02-15T11:50:05.225Z,3888
2019-02-15T11:51:05.225Z,3888
2019-02-15T11:52:05.228Z,3896
2019-02-15T11:53:05.201Z,3900
2019-02-15T11:54:05.773Z,3900
2019-02-15T11:55:05.187Z,3900
2019-02-15T11:56:05.170Z,3896
2019-02-15T11:57:05.172Z,3896
2019-02-15T11:58:05.157Z,3904
2019-02-15T11:59:05.144Z,3916
2019-02-15T12:00:13.801Z,3928
2019-02-15T12:01:05.128Z,3936
2019-02-15T12:02:13.298Z,3952
2019-02-15T12:03:05.115Z,3964
2019-02-15T12:04:05.105Z,3976
2019-02-15T12:05:05.112Z,3996
2019-02-15T12:06:06.292Z,4016
2019-02-15T12:07:04.831Z,4028
2019-02-15T12:08:05.065Z,4040
2019-02-15T12:09:05.060Z,4052
2019-02-15T12:10:05.046Z,4068
2019-02-15T12:11:05.038Z,4080
2019-02-15T12:12:13.139Z,4088
2019-02-15T12:13:05.024Z,4100
2019-02-15T12:14:05.011Z,4112
2019-02-15T12:15:05.001Z,4120
2019-02-15T12:16:04.993Z,4128
2019-02-15T12:17:12.786Z,4132
2019-02-15T12:18:04.981Z,4136
2019-02-15T12:19:04.725Z,4140
2019-02-15T12:20:05.047Z,4140
2019-02-15T12:21:04.948Z,4144
2019-02-15T12:22:04.938Z,4148
2019-02-15T12:23:04.951Z,4152
2019-02-15T12:24:04.926Z,4152
2019-02-15T12:25:04.963Z,4156
2019-02-15T12:26:04.905Z,4160
2019-02-15T12:27:04.706Z,4168
2019-02-15T12:28:04.902Z,4172
2019-02-15T12:29:05.332Z,4172
2019-02-15T12:30:05.116Z,4180
2019-02-15T12:31:04.892Z,4188
2019-02-15T12:32:04.851Z,4192
2019-02-15T12:33:04.863Z,4204
2019-02-15T12:34:04.832Z,4212
2019-02-15T12:35:05.000Z,4216
2019-02-15T12:36:04.817Z,4228
2019-02-15T12:37:04.809Z,4236
2019-02-15T12:38:04.799Z,4244
2019-02-15T12:39:04.548Z,4240
2019-02-15T12:40:05.107Z,4240
2019-02-15T12:41:04.775Z,4236
2019-02-15T12:42:04.767Z,4228
2019-02-15T12:43:04.784Z,4220
2019-02-15T12:44:04.748Z,4216
2019-02-15T12:45:04.749Z,4200
2019-02-15T12:46:04.737Z,4188
2019-02-15T12:47:04.734Z,4172
2019-02-15T12:48:04.736Z,4156
2019-02-15T12:49:04.719Z,4144
2019-02-15T12:50:04.456Z,4128
2019-02-15T12:51:04.695Z,4108
2019-02-15T12:52:04.691Z,4084
2019-02-15T12:53:04.681Z,4068
2019-02-15T12:54:04.706Z,4048
2019-02-15T12:55:06.314Z,4032
2019-02-15T12:56:04.656Z,4020
2019-02-15T12:57:04.639Z,4004
2019-02-15T12:58:04.632Z,3988
2019-02-15T12:59:04.621Z,3976
2019-02-15T13:00:04.618Z,3964
2019-02-15T13:01:04.633Z,3940
2019-02-15T13:02:04.620Z,3924
2019-02-15T13:03:04.644Z,3908
2019-02-15T13:04:04.588Z,3896
2019-02-15T13:05:04.580Z,3884
2019-02-15T13:06:04.325Z,3872
2019-02-15T13:07:04.559Z,3860
2019-02-15T13:08:04.575Z,3844
2019-02-15T13:09:04.557Z,3832
2019-02-15T13:10:04.543Z,3808
2019-02-15T13:11:04.525Z,3796
2019-02-15T13:12:04.523Z,3780
2019-02-15T13:13:04.509Z,3768
2019-02-15T13:14:04.565Z,3760
2019-02-15T13:15:04.497Z,3748
2019-02-15T13:16:04.487Z,3736
2019-02-15T13:17:04.472Z,3724
2019-02-15T13:18:04.504Z,3712
2019-02-15T13:19:04.460Z,3704
2019-02-15T13:20:04.455Z,3692
2019-02-15T13:21:04.442Z,3672
2019-02-15T13:22:04.432Z,3652
2019-02-15T13:23:04.438Z,3636
2019-02-15T13:24:04.431Z,3616
2019-02-15T13:25:04.407Z,3612
2019-02-15T13:26:13.257Z,3596
2019-02-15T13:27:04.399Z,3584
2019-02-15T13:28:04.395Z,3568
2019-02-15T13:29:04.374Z,3552
2019-02-15T13:30:04.367Z,3540
2019-02-15T13:31:04.365Z,3528
2019-02-15T13:32:04.352Z,3516
2019-02-15T13:33:04.345Z,3508
2019-02-15T13:34:04.392Z,3496
2019-02-15T13:35:04.757Z,3480
2019-02-15T13:36:04.343Z,3472
2019-02-15T13:37:04.323Z,3460
2019-02-15T13:38:04.300Z,3444
2019-02-15T13:39:04.295Z,3432
2019-02-15T13:40:04.284Z,3412
2019-02-15T13:41:04.278Z,3412
2019-02-15T13:42:04.270Z,3412
2019-02-15T13:43:04.257Z,3400
2019-02-15T13:44:05.464Z,3388
2019-02-15T13:45:04.007Z,3376
2019-02-15T13:46:04.243Z,3368
2019-02-15T13:47:04.232Z,3360
2019-02-15T13:48:04.226Z,3360
2019-02-15T13:49:04.217Z,3356
2019-02-15T13:50:04.202Z,3352
2019-02-15T13:51:04.192Z,3352
2019-02-15T13:52:04.530Z,3348
2019-02-15T13:53:04.200Z,3352
2019-02-15T13:54:04.175Z,3356
2019-02-15T13:55:04.171Z,3352
2019-02-15T13:56:04.150Z,3348